Archival Weather

Heathrow

London, United Kingdom (EGLL)

Report from: Tuesday, June 18, 2024 8:50 AM BST
Current time: Monday, July 22, 2024 1:00 PM BST

Current weather – Weather history – Daily summaries
Weather forecast

Temperature16.0°C (60.8°F)
Dew point10.0°C (50.0°F)
Winds 6 kts (3.1 m/s, 6.9 mph) Vrb
Winds variableWinds variable from North-Northwest (330°) to Northeast (50°)
Visibility6.2 mi. (10 km)
Clouds Sky clear
Altimeter29.94 in.Hg (1014 mB)
Relative humidity68 %
Density altitude267 ft. (81 m)
Remarks Fully automated report
No clouds detected
Flight conditions Visual Meteorological Conditions
Raw dataEGLL 180750Z AUTO 01006KT 330V050 9999 NCD 16/10 Q1014
An error has occurred. This application may no longer respond until reloaded. Reload 🗙